Time;durP1;ratioP1;P1;durP2;ratioP2;P2;SDS_P1;SDS_P2;PMS_P1;PMS_P2;Temp;Humidity;BMP_temperature;BMP_pressure;BME280_temperature;BME280_humidity;BME280_pressure;Samples;Min_cycle;Max_cycle;Signal;HPM_P1;HPM_P2
2021/11/23 00:01:27;;;;;;;12.30;9.73;;;5.80;99.90;;;;;;4973139;28;20925;-82
2021/11/23 00:03:54;;;;;;;13.07;11.27;;;6.00;99.90;;;;;;4956980;28;20571;-82
2021/11/23 00:06:27;;;;;;;12.33;10.80;;;6.20;99.90;;;;;;4972150;28;20469;-81
2021/11/23 00:12:25;;;;;;;15.37;12.20;;;6.00;99.90;;;;;;4970021;28;20454;-82
2021/11/23 00:15:34;;;;;;;14.20;10.77;;;5.90;99.90;;;;;;4964624;28;20439;-83
2021/11/23 00:18:31;;;;;;;12.43;10.27;;;5.70;99.90;;;;;;4956835;28;20521;-83
2021/11/23 00:21:10;;;;;;;14.87;10.73;;;5.60;99.90;;;;;;4959864;28;20489;-83
2021/11/23 00:23:48;;;;;;;12.40;10.43;;;5.60;99.90;;;;;;4974595;28;20481;-82
2021/11/23 00:26:27;;;;;;;13.80;10.40;;;5.50;99.90;;;;;;4964440;28;20469;-81
2021/11/23 00:29:04;;;;;;;11.07;9.13;;;5.40;99.90;;;;;;4962107;28;20887;-82
2021/11/23 00:31:49;;;;;;;15.27;11.23;;;5.30;99.90;;;;;;4962278;28;20549;-82
2021/11/23 00:34:27;;;;;;;12.73;10.40;;;5.20;99.90;;;;;;4974907;28;21424;-81
2021/11/23 00:37:13;;;;;;;13.23;10.30;;;5.00;99.90;;;;;;4975119;28;20454;-83
2021/11/23 00:39:46;;;;;;;13.00;10.33;;;5.20;99.90;;;;;;4975868;28;20538;-83
2021/11/23 00:42:25;;;;;;;12.30;10.30;;;5.30;99.90;;;;;;4958276;28;20475;-82
2021/11/23 00:44:53;;;;;;;15.53;10.70;;;5.30;99.90;;;;;;4976518;28;20459;-85
2021/11/23 00:47:37;;;;;;;14.60;10.47;;;5.20;99.90;;;;;;4972488;28;20547;-83
2021/11/23 00:50:18;;;;;;;14.60;10.67;;;5.10;99.90;;;;;;4973796;28;20491;-82
2021/11/23 00:53:02;;;;;;;12.33;9.80;;;5.00;99.90;;;;;;4961047;28;20445;-83
2021/11/23 00:55:37;;;;;;;12.40;9.73;;;5.00;99.90;;;;;;4962540;28;20462;-81
2021/11/23 00:58:27;;;;;;;12.17;10.60;;;5.10;99.90;;;;;;4956211;28;20566;-82
2021/11/23 01:01:06;;;;;;;12.33;10.43;;;5.10;99.90;;;;;;4974926;28;20478;-81
2021/11/23 01:03:38;;;;;;;15.40;11.20;;;5.10;99.90;;;;;;4977189;28;20524;-81
2021/11/23 01:06:19;;;;;;;15.30;11.67;;;5.10;99.90;;;;;;4958251;28;20461;-83
2021/11/23 01:08:53;;;;;;;13.13;9.40;;;5.00;99.90;;;;;;4972000;28;20478;-82
2021/11/23 01:11:30;;;;;;;13.40;9.60;;;4.90;99.90;;;;;;4956879;28;20479;-79
2021/11/23 01:14:07;;;;;;;14.57;9.87;;;4.90;99.90;;;;;;4958367;28;22046;-83
2021/11/23 01:16:47;;;;;;;14.73;10.67;;;4.80;99.90;;;;;;4956774;28;20481;-83
2021/11/23 01:19:30;;;;;;;12.77;10.67;;;4.80;99.90;;;;;;4958695;28;20562;-82
2021/11/23 01:21:59;;;;;;;13.90;10.20;;;4.80;99.90;;;;;;4955904;28;21274;-81
2021/11/23 01:24:38;;;;;;;15.87;11.07;;;4.90;99.90;;;;;;4958523;28;20494;-83
2021/11/23 01:27:12;;;;;;;10.67;9.57;;;4.80;99.90;;;;;;4974783;28;20469;-82
2021/11/23 01:29:44;;;;;;;12.43;9.97;;;4.80;99.90;;;;;;4971097;28;20500;-82
2021/11/23 01:32:28;;;;;;;12.97;10.10;;;4.80;99.90;;;;;;4961658;28;22235;-79
2021/11/23 01:35:00;;;;;;;13.43;10.30;;;4.70;99.90;;;;;;4979995;28;20462;-81
2021/11/23 01:37:35;;;;;;;12.50;10.17;;;4.70;99.90;;;;;;4993381;28;20448;-82
2021/11/23 01:40:08;;;;;;;13.47;11.37;;;4.60;99.90;;;;;;4980458;28;20501;-82
2021/11/23 01:42:46;;;;;;;14.47;10.37;;;4.60;99.90;;;;;;4982862;28;20486;-83
2021/11/23 01:45:44;;;;;;;15.53;9.70;;;4.60;99.90;;;;;;4995321;28;22178;-82
2021/11/23 01:48:19;;;;;;;13.33;10.43;;;4.50;99.90;;;;;;4972984;28;20513;-82
2021/11/23 01:50:49;;;;;;;16.17;11.37;;;4.40;99.90;;;;;;4959703;28;20642;-83
2021/11/23 01:53:17;;;;;;;11.87;9.67;;;4.30;99.90;;;;;;4974622;28;20936;-83
2021/11/23 01:55:58;;;;;;;10.73;8.90;;;4.30;99.90;;;;;;4960309;28;20512;-80
2021/11/23 01:58:25;;;;;;;13.30;9.20;;;4.20;99.90;;;;;;4976267;28;20443;-84
2021/11/23 02:00:55;;;;;;;14.53;9.10;;;4.30;99.90;;;;;;4974180;28;20478;-83
2021/11/23 02:03:34;;;;;;;14.03;10.40;;;4.30;99.90;;;;;;4983198;28;20526;-84
2021/11/23 02:06:09;;;;;;;13.40;9.40;;;4.30;99.90;;;;;;4975135;28;20463;-84
2021/11/23 02:08:42;;;;;;;11.97;9.77;;;4.20;99.90;;;;;;4971975;28;20495;-82
2021/11/23 02:11:15;;;;;;;11.80;9.70;;;4.20;99.90;;;;;;4970568;28;21997;-82
2021/11/23 02:13:47;;;;;;;15.93;10.83;;;4.30;99.90;;;;;;4969232;28;20918;-83
2021/11/23 02:16:23;;;;;;;11.83;9.73;;;4.20;99.90;;;;;;4957249;28;20435;-83
2021/11/23 02:19:18;;;;;;;12.33;10.20;;;4.30;99.90;;;;;;4968377;28;20466;-83
2021/11/23 02:21:54;;;;;;;12.87;9.80;;;4.30;99.90;;;;;;4973235;28;21141;-83
2021/11/23 02:24:29;;;;;;;12.00;9.70;;;4.20;99.90;;;;;;4957774;28;20489;-83
2021/11/23 02:27:08;;;;;;;13.27;9.73;;;4.10;99.90;;;;;;4970751;28;20462;-83
2021/11/23 02:29:39;;;;;;;13.90;9.83;;;4.00;99.90;;;;;;4957418;28;20542;-84
2021/11/23 02:32:11;;;;;;;14.87;10.10;;;4.20;99.90;;;;;;4959003;28;20476;-84
2021/11/23 02:34:45;;;;;;;15.60;10.40;;;4.20;99.90;;;;;;4959447;28;20465;-84
2021/11/23 02:37:28;;;;;;;10.70;9.60;;;4.10;99.90;;;;;;4969847;28;20469;-82
2021/11/23 02:40:00;;;;;;;11.67;9.67;;;4.10;99.90;;;;;;4958485;28;20543;-82
2021/11/23 02:42:27;;;;;;;11.87;10.07;;;4.20;99.90;;;;;;4953751;28;20462;-83
2021/11/23 02:44:57;;;;;;;11.60;10.10;;;4.30;99.90;;;;;;4957499;28;20461;-84
2021/11/23 02:47:45;;;;;;;11.87;10.37;;;4.30;99.90;;;;;;4970903;28;20818;-83
2021/11/23 02:50:28;;;;;;;10.83;9.67;;;4.20;99.90;;;;;;4948953;28;20485;-83
2021/11/23 02:52:57;;;;;;;11.80;9.67;;;4.40;99.90;;;;;;4970687;28;20443;-83
2021/11/23 02:55:36;;;;;;;12.63;9.20;;;4.40;99.90;;;;;;4957648;28;20443;-85
2021/11/23 02:58:10;;;;;;;10.70;9.40;;;4.30;99.90;;;;;;4955963;28;20573;-84
2021/11/23 03:00:38;;;;;;;11.33;8.80;;;4.30;99.90;;;;;;4957967;28;20490;-83
2021/11/23 03:03:05;;;;;;;13.20;11.60;;;4.20;99.90;;;;;;4956228;28;20494;-84
2021/11/23 03:05:45;;;;;;;13.47;9.70;;;4.20;99.90;;;;;;4957089;28;21860;-85
2021/11/23 03:08:15;;;;;;;10.97;9.20;;;4.10;99.90;;;;;;4955243;28;21242;-83
2021/11/23 03:10:52;;;;;;;13.80;10.17;;;4.10;99.90;;;;;;4956362;28;20494;-82
2021/11/23 03:13:31;;;;;;;13.80;10.97;;;4.10;99.90;;;;;;4956202;28;20462;-83
2021/11/23 03:16:00;;;;;;;17.83;11.33;;;4.00;99.90;;;;;;4953593;28;20892;-84
2021/11/23 03:18:30;;;;;;;17.80;12.93;;;4.10;99.90;;;;;;4955601;28;21217;-84
2021/11/23 03:21:25;;;;;;;24.90;13.50;;;3.80;99.90;;;;;;4965014;28;20555;-83
2021/11/23 03:24:04;;;;;;;20.83;10.80;;;3.90;99.90;;;;;;4957716;28;20495;-84
2021/11/23 03:26:38;;;;;;;19.57;11.27;;;3.90;99.90;;;;;;4957586;28;20834;-81
2021/11/23 03:29:08;;;;;;;16.17;9.97;;;3.90;99.90;;;;;;4955783;28;20483;-83
2021/11/23 03:31:42;;;;;;;17.53;11.03;;;3.80;99.90;;;;;;4955786;28;20495;-84
2021/11/23 03:34:15;;;;;;;15.77;10.93;;;3.90;99.90;;;;;;4958180;28;20465;-83
2021/11/23 03:36:50;;;;;;;16.90;10.87;;;3.90;99.90;;;;;;4958462;28;20450;-83
2021/11/23 03:39:19;;;;;;;14.17;10.87;;;3.80;99.90;;;;;;4950551;28;20491;-83
2021/11/23 03:41:51;;;;;;;13.50;10.87;;;3.90;99.90;;;;;;4971213;28;21564;-82
2021/11/23 03:44:25;;;;;;;12.77;10.20;;;3.90;99.90;;;;;;4953640;28;20454;-83
2021/11/23 03:46:55;;;;;;;11.60;9.40;;;3.90;99.90;;;;;;4956660;28;20459;-83
2021/11/23 03:49:34;;;;;;;14.17;11.27;;;3.80;99.90;;;;;;4954651;28;20605;-84
2021/11/23 03:52:07;;;;;;;17.33;10.97;;;3.80;99.90;;;;;;4955142;28;20465;-83
2021/11/23 03:54:43;;;;;;;16.47;11.60;;;3.90;99.90;;;;;;4957125;28;20451;-83
2021/11/23 03:57:16;;;;;;;18.13;10.97;;;3.90;99.90;;;;;;4972315;28;20462;-83
2021/11/23 03:59:55;;;;;;;13.47;9.83;;;3.70;99.90;;;;;;4971153;28;20483;-83
2021/11/23 04:02:30;;;;;;;12.67;9.37;;;3.70;99.90;;;;;;4958441;28;22658;-84
2021/11/23 04:05:05;;;;;;;11.93;9.00;;;3.80;99.90;;;;;;4961957;28;20562;-83
2021/11/23 04:07:40;;;;;;;12.80;9.03;;;3.70;99.90;;;;;;4962305;28;21188;-84
2021/11/23 04:10:32;;;;;;;9.70;8.70;;;3.60;99.90;;;;;;4976689;28;20569;-84
2021/11/23 04:13:07;;;;;;;12.93;9.60;;;3.90;99.90;;;;;;4963908;28;20464;-82
2021/11/23 04:15:37;;;;;;;10.83;9.17;;;4.00;99.90;;;;;;4957093;28;20471;-84
2021/11/23 04:18:08;;;;;;;14.33;9.70;;;3.90;99.90;;;;;;4975587;28;20456;-86
2021/11/23 04:20:41;;;;;;;11.93;9.10;;;3.90;99.90;;;;;;4960683;28;20566;-84
2021/11/23 04:23:18;;;;;;;11.93;9.00;;;3.80;99.90;;;;;;4982306;28;20471;-84
2021/11/23 04:25:48;;;;;;;10.97;8.57;;;3.70;99.90;;;;;;4970238;28;20458;-83
2021/11/23 04:28:24;;;;;;;11.27;9.13;;;3.60;99.90;;;;;;4967404;28;20482;-83
2021/11/23 04:30:51;;;;;;;13.80;9.37;;;3.60;99.90;;;;;;4959641;28;20532;-82
2021/11/23 04:33:20;;;;;;;10.90;9.00;;;3.70;99.90;;;;;;4959799;28;20505;-84
2021/11/23 04:35:57;;;;;;;12.43;9.70;;;3.70;99.90;;;;;;4963403;28;22173;-83
2021/11/23 04:38:30;;;;;;;12.80;9.57;;;3.70;99.90;;;;;;4965343;28;20527;-82
2021/11/23 04:41:12;;;;;;;12.57;9.73;;;3.90;99.90;;;;;;4960089;28;20487;-84
2021/11/23 04:43:56;;;;;;;14.10;10.33;;;4.00;99.90;;;;;;4988212;28;20469;-83
2021/11/23 04:47:24;;;;;;;13.40;9.90;;;4.00;99.90;;;;;;4961667;28;20467;-83
2021/11/23 04:50:25;;;;;;;13.67;10.07;;;3.90;99.90;;;;;;4920367;28;20485;-83
2021/11/23 04:52:56;;;;;;;14.53;10.47;;;3.80;99.90;;;;;;4921811;28;20534;-83
2021/11/23 04:55:34;;;;;;;14.43;10.50;;;3.80;99.90;;;;;;4921019;28;20460;-83
2021/11/23 04:58:07;;;;;;;13.47;10.30;;;3.70;99.90;;;;;;4918383;28;20461;-82
2021/11/23 05:00:45;;;;;;;14.33;9.70;;;3.70;99.90;;;;;;4922552;28;20480;-82
2021/11/23 05:03:23;;;;;;;11.83;9.20;;;3.80;99.90;;;;;;4927562;28;20969;-86
2021/11/23 05:05:51;;;;;;;12.80;9.63;;;3.80;99.90;;;;;;4982580;28;20482;-83
2021/11/23 05:08:32;;;;;;;16.40;11.47;;;3.70;99.90;;;;;;4999720;28;20468;-83
2021/11/23 05:11:09;;;;;;;11.10;9.63;;;3.80;99.90;;;;;;4999315;28;21070;-84
2021/11/23 05:13:43;;;;;;;14.77;9.70;;;3.80;99.90;;;;;;4981272;28;20464;-83
2021/11/23 05:16:15;;;;;;;13.30;10.07;;;3.90;99.90;;;;;;5015750;28;20823;-86
2021/11/23 05:18:49;;;;;;;11.70;8.80;;;3.80;99.90;;;;;;5005906;28;20466;-85
2021/11/23 05:21:22;;;;;;;18.53;10.43;;;3.90;99.90;;;;;;5023069;28;20498;-84
2021/11/23 05:23:56;;;;;;;18.03;9.70;;;3.90;99.90;;;;;;5004192;28;20782;-84
2021/11/23 05:26:42;;;;;;;14.13;8.53;;;3.80;99.90;;;;;;5010574;28;20797;-83
2021/11/23 05:29:14;;;;;;;10.80;9.57;;;3.60;99.90;;;;;;5036989;28;20461;-85
2021/11/23 05:31:53;;;;;;;14.87;9.53;;;3.70;99.90;;;;;;5013353;28;20444;-81
2021/11/23 05:34:36;;;;;;;13.37;10.67;;;3.70;99.90;;;;;;5005587;28;20460;-85
2021/11/23 05:37:09;;;;;;;13.10;9.87;;;3.80;99.90;;;;;;5012648;28;20854;-86
2021/11/23 05:39:42;;;;;;;13.30;9.97;;;3.60;99.90;;;;;;5023006;28;20499;-86
2021/11/23 05:42:34;;;;;;;12.93;9.90;;;3.60;99.90;;;;;;5030380;28;20450;-86
2021/11/23 05:45:09;;;;;;;16.87;11.97;;;3.60;99.90;;;;;;5005720;28;20466;-85
2021/11/23 05:47:41;;;;;;;14.53;10.90;;;3.70;99.90;;;;;;5007913;28;20450;-85
2021/11/23 05:50:19;;;;;;;15.57;10.10;;;3.70;99.90;;;;;;5004484;28;20868;-85
2021/11/23 05:52:54;;;;;;;15.20;10.30;;;3.60;99.90;;;;;;5005708;28;20462;-81
2021/11/23 05:55:27;;;;;;;17.97;10.73;;;3.60;99.90;;;;;;4995699;28;21548;-83
2021/11/23 05:58:02;;;;;;;18.50;11.70;;;3.70;99.90;;;;;;5000748;28;20438;-83
2021/11/23 06:00:34;;;;;;;19.10;10.60;;;3.70;99.90;;;;;;5003356;28;20485;-85
2021/11/23 06:03:04;;;;;;;21.30;10.90;;;3.80;99.90;;;;;;4986940;28;20473;-86
2021/11/23 06:05:39;;;;;;;15.33;10.53;;;3.80;99.90;;;;;;5001900;28;20581;-85
2021/11/23 06:08:11;;;;;;;15.93;10.03;;;3.70;99.90;;;;;;5009231;28;20446;-82
2021/11/23 06:10:41;;;;;;;15.27;10.37;;;3.60;99.90;;;;;;5304664;23;20494;-88
2021/11/23 06:13:17;;;;;;;16.33;10.60;;;3.90;99.90;;;;;;5018146;28;20459;-84
2021/11/23 06:15:48;;;;;;;16.40;10.13;;;4.00;99.90;;;;;;5014539;28;20522;-84
2021/11/23 06:18:34;;;;;;;15.73;10.10;;;4.10;99.90;;;;;;5022783;28;20461;-88
2021/11/23 06:21:19;;;;;;;13.00;10.37;;;4.00;99.90;;;;;;5018260;28;20469;-84
2021/11/23 06:23:51;;;;;;;18.57;11.47;;;3.90;99.90;;;;;;5003902;28;20529;-85
2021/11/23 06:26:53;;;;;;;16.40;11.23;;;3.90;99.90;;;;;;5014988;28;20443;-82
2021/11/23 06:29:37;;;;;;;11.37;9.07;;;3.90;99.90;;;;;;5011056;28;20893;-85
2021/11/23 06:32:22;;;;;;;12.50;10.13;;;3.90;99.90;;;;;;5002798;28;20498;-83
2021/11/23 06:34:49;;;;;;;14.20;10.00;;;3.90;99.90;;;;;;5004049;28;20451;-83
2021/11/23 06:37:48;;;;;;;16.27;10.40;;;3.90;99.90;;;;;;5010246;28;20580;-82
2021/11/23 06:40:22;;;;;;;14.00;10.27;;;3.80;99.90;;;;;;5004820;28;20550;-84
2021/11/23 06:42:58;;;;;;;19.03;12.17;;;3.80;99.90;;;;;;5001905;28;20487;-84
2021/11/23 06:45:40;;;;;;;17.93;12.40;;;3.80;99.90;;;;;;5006617;28;20491;-84
2021/11/23 06:48:13;;;;;;;17.13;10.40;;;3.70;99.90;;;;;;5010795;28;20455;-84
2021/11/23 06:54:13;;;;;;;14.27;9.80;;;3.60;99.90;;;;;;5008964;28;20435;-86
2021/11/23 06:56:55;;;;;;;15.57;9.67;;;3.70;99.90;;;;;;5006056;28;20505;-85
2021/11/23 06:59:22;;;;;;;12.97;10.33;;;3.90;99.90;;;;;;5010238;28;20447;-83
2021/11/23 07:02:01;;;;;;;15.40;11.27;;;3.90;99.90;;;;;;5007812;28;20484;-84
2021/11/23 07:04:45;;;;;;;12.80;9.40;;;3.90;99.90;;;;;;5003316;28;20457;-83
2021/11/23 07:07:18;;;;;;;12.20;10.13;;;3.90;99.90;;;;;;5009191;28;20539;-83
2021/11/23 07:10:08;;;;;;;15.63;10.93;;;3.90;99.90;;;;;;4997731;28;20515;-83
2021/11/23 07:13:15;;;;;;;14.20;11.43;;;3.90;99.90;;;;;;4991888;28;20453;-85
2021/11/23 07:16:00;;;;;;;10.47;8.80;;;3.90;99.90;;;;;;4998217;28;20451;-84
2021/11/23 07:19:29;;;;;;;18.93;10.90;;;3.90;99.90;;;;;;4999609;28;20433;-83
2021/11/23 07:22:32;;;;;;;14.43;10.03;;;3.80;99.90;;;;;;4991200;28;20573;-84
2021/11/23 07:25:09;;;;;;;15.10;11.20;;;3.70;99.90;;;;;;5013596;28;20473;-82
2021/11/23 07:27:50;;;;;;;12.93;10.30;;;3.70;99.90;;;;;;5010801;28;20501;-84
2021/11/23 07:30:38;;;;;;;16.13;11.53;;;3.70;99.90;;;;;;5009718;28;20498;-83
2021/11/23 07:33:06;;;;;;;19.20;12.00;;;3.90;99.90;;;;;;5009970;28;20458;-82
2021/11/23 07:35:37;;;;;;;18.90;11.67;;;4.00;99.90;;;;;;5000198;28;20826;-83
2021/11/23 07:38:13;;;;;;;16.60;12.20;;;4.00;99.90;;;;;;5003345;28;20477;-85
2021/11/23 07:41:10;;;;;;;14.33;12.20;;;4.00;99.90;;;;;;5004402;28;20490;-88
2021/11/23 07:44:07;;;;;;;14.70;9.93;;;3.80;99.90;;;;;;5012801;28;20419;-87
2021/11/23 07:46:51;;;;;;;17.63;11.57;;;3.60;99.90;;;;;;5012753;28;20436;-87
2021/11/23 07:49:35;;;;;;;18.10;11.70;;;3.60;99.90;;;;;;5011968;28;20442;-86
2021/11/23 07:52:25;;;;;;;11.53;9.90;;;3.60;99.90;;;;;;4998656;28;20463;-86
2021/11/23 07:55:02;;;;;;;16.97;10.77;;;3.80;99.90;;;;;;5023441;28;20444;-88
2021/11/23 07:57:39;;;;;;;15.80;10.70;;;4.00;99.90;;;;;;5013490;28;20504;-86
2021/11/23 08:00:25;;;;;;;15.10;11.17;;;3.90;99.90;;;;;;5013347;28;20549;-85
2021/11/23 08:03:01;;;;;;;19.47;15.10;;;3.70;99.90;;;;;;5014767;28;20459;-87
2021/11/23 08:05:28;;;;;;;17.27;12.17;;;3.90;99.90;;;;;;5015629;28;20459;-87
2021/11/23 08:08:09;;;;;;;15.93;10.90;;;4.10;99.90;;;;;;5016095;28;20463;-87
2021/11/23 08:14:16;;;;;;;17.50;11.30;;;4.30;99.90;;;;;;5001309;28;20507;-83
2021/11/23 08:17:03;;;;;;;17.63;10.77;;;4.30;99.90;;;;;;4999088;28;20456;-83
2021/11/23 08:19:33;;;;;;;16.77;10.60;;;4.50;99.90;;;;;;4995466;28;20471;-83
2021/11/23 08:22:14;;;;;;;14.50;9.80;;;4.40;99.90;;;;;;4997058;28;20448;-82
2021/11/23 08:24:48;;;;;;;16.90;10.70;;;4.50;99.90;;;;;;4993817;28;20996;-83
2021/11/23 08:27:27;;;;;;;17.50;11.63;;;4.40;99.90;;;;;;4994273;28;20459;-82
2021/11/23 08:30:03;;;;;;;15.90;11.73;;;4.20;99.90;;;;;;4994573;28;20486;-84
2021/11/23 08:32:44;;;;;;;14.20;10.90;;;4.20;99.90;;;;;;5004548;28;20451;-83
2021/11/23 08:35:11;;;;;;;18.23;12.13;;;4.30;99.90;;;;;;5005134;28;20512;-82
2021/11/23 08:37:49;;;;;;;17.13;9.87;;;4.30;99.90;;;;;;5009176;28;20463;-83
2021/11/23 08:40:25;;;;;;;18.17;11.10;;;4.40;99.90;;;;;;4998455;28;20457;-82
2021/11/23 08:43:22;;;;;;;14.97;12.50;;;4.50;99.90;;;;;;4995659;28;20460;-84
2021/11/23 08:45:52;;;;;;;16.97;11.97;;;4.60;99.90;;;;;;4983932;28;20596;-82
2021/11/23 08:48:27;;;;;;;16.80;12.60;;;4.50;99.90;;;;;;4995532;28;20663;-83
2021/11/23 08:51:04;;;;;;;16.60;12.60;;;4.60;99.90;;;;;;4994343;28;20559;-82
2021/11/23 08:53:47;;;;;;;18.07;12.60;;;4.70;99.90;;;;;;4992757;28;20454;-81
2021/11/23 08:56:29;;;;;;;19.23;12.40;;;4.60;99.90;;;;;;4999413;28;20443;-86
2021/11/23 08:59:02;;;;;;;14.20;10.80;;;4.50;99.90;;;;;;4997181;28;20474;-84
2021/11/23 09:01:29;;;;;;;23.07;11.57;;;4.30;99.90;;;;;;4994090;28;20548;-83
2021/11/23 09:04:03;;;;;;;16.00;11.67;;;4.40;99.90;;;;;;4997855;28;20910;-82
2021/11/23 09:06:39;;;;;;;15.30;10.90;;;4.30;99.90;;;;;;4998104;28;20461;-85
2021/11/23 09:09:22;;;;;;;16.80;12.40;;;4.80;99.90;;;;;;4998249;28;20767;-85
2021/11/23 09:12:05;;;;;;;16.93;11.43;;;5.00;99.90;;;;;;4998453;28;20477;-86
2021/11/23 09:14:46;;;;;;;20.70;12.67;;;5.10;99.90;;;;;;4999511;28;20484;-85
2021/11/23 09:17:17;;;;;;;20.57;12.37;;;5.00;99.90;;;;;;4996630;28;20519;-84
2021/11/23 09:20:00;;;;;;;16.57;10.70;;;5.00;99.90;;;;;;5012169;28;20480;-86
2021/11/23 09:26:17;;;;;;;23.40;13.47;;;5.00;99.90;;;;;;5005564;28;20492;-84
2021/11/23 09:28:47;;;;;;;17.53;13.70;;;5.00;99.90;;;;;;5003626;28;20458;-85
2021/11/23 09:31:23;;;;;;;19.63;15.37;;;5.10;99.90;;;;;;4995332;28;20487;-84
2021/11/23 09:33:54;;;;;;;23.70;14.80;;;5.30;99.90;;;;;;4996146;28;21047;-83
2021/11/23 09:36:26;;;;;;;25.50;15.63;;;5.50;99.90;;;;;;5005270;28;20442;-84
2021/11/23 09:39:03;;;;;;;23.67;14.70;;;5.40;99.90;;;;;;4995629;28;20595;-83
2021/11/23 09:41:36;;;;;;;25.00;15.10;;;5.40;99.90;;;;;;4981771;28;20561;-83
2021/11/23 09:44:09;;;;;;;20.93;13.80;;;5.40;99.90;;;;;;5015514;28;20437;-87
2021/11/23 09:46:43;;;;;;;19.67;12.60;;;5.30;99.90;;;;;;5001106;28;20461;-86
2021/11/23 09:49:26;;;;;;;18.50;13.20;;;5.20;99.90;;;;;;5005142;28;20433;-82
2021/11/23 09:51:53;;;;;;;20.07;12.57;;;5.20;99.90;;;;;;5006844;28;20892;-84
2021/11/23 09:54:44;;;;;;;20.47;13.60;;;5.20;99.90;;;;;;4998126;28;20464;-84
2021/11/23 09:57:17;;;;;;;24.97;14.40;;;5.40;99.90;;;;;;4997025;28;20458;-84
2021/11/23 09:59:57;;;;;;;20.90;13.87;;;5.40;99.90;;;;;;4999370;28;20482;-83
2021/11/23 10:02:35;;;;;;;20.23;14.00;;;5.30;99.90;;;;;;5016519;28;20444;-88
2021/11/23 10:05:24;;;;;;;16.70;12.93;;;5.30;99.90;;;;;;5015266;28;20493;-85
2021/11/23 10:08:20;;;;;;;17.77;12.20;;;5.50;99.90;;;;;;5024381;28;20444;-85
2021/11/23 10:11:00;;;;;;;20.70;15.50;;;5.60;99.90;;;;;;5017435;28;20556;-87
2021/11/23 10:13:52;;;;;;;17.20;12.13;;;5.50;99.90;;;;;;5016453;28;20484;-83
2021/11/23 10:16:49;;;;;;;21.23;13.97;;;5.60;99.90;;;;;;5015378;28;20445;-83
2021/11/23 10:19:45;;;;;;;20.23;13.83;;;5.50;99.90;;;;;;5004092;28;20460;-85
2021/11/23 10:22:32;;;;;;;21.20;15.27;;;5.50;99.90;;;;;;5003813;28;20950;-83
2021/11/23 10:25:06;;;;;;;21.40;12.83;;;5.60;99.90;;;;;;5001323;28;20476;-83
2021/11/23 10:27:52;;;;;;;19.30;12.53;;;5.50;99.90;;;;;;4998243;28;20531;-86
2021/11/23 10:30:28;;;;;;;19.60;13.90;;;5.60;99.90;;;;;;5000434;28;20465;-82
2021/11/23 10:32:59;;;;;;;20.40;14.00;;;5.60;99.90;;;;;;5009293;28;20494;-82
2021/11/23 10:35:52;;;;;;;20.10;13.83;;;5.70;99.90;;;;;;5003618;28;21572;-84
2021/11/23 10:38:55;;;;;;;18.47;12.67;;;5.80;99.90;;;;;;4998350;28;20892;-82
2021/11/23 10:41:24;;;;;;;19.10;12.80;;;5.70;99.90;;;;;;4970210;28;20473;-84
2021/11/23 10:44:42;;;;;;;18.67;13.60;;;5.70;99.90;;;;;;4995462;28;20463;-81
2021/11/23 10:47:17;;;;;;;20.80;13.80;;;5.80;99.90;;;;;;4993530;28;20461;-82
2021/11/23 10:49:46;;;;;;;21.57;13.63;;;5.80;99.90;;;;;;4995983;28;20568;-85
2021/11/23 10:52:47;;;;;;;18.70;13.93;;;5.90;99.90;;;;;;4992677;28;21022;-83
2021/11/23 10:55:33;;;;;;;17.97;13.80;;;6.20;99.90;;;;;;4996526;28;20481;-82
2021/11/23 10:58:09;;;;;;;17.13;11.87;;;6.30;99.90;;;;;;4994199;28;20463;-84
2021/11/23 11:00:45;;;;;;;18.43;13.23;;;6.30;99.90;;;;;;4996237;28;20554;-83
2021/11/23 11:03:28;;;;;;;19.87;14.37;;;6.30;99.90;;;;;;4994940;28;20895;-84
2021/11/23 11:05:57;;;;;;;19.97;14.07;;;6.40;99.90;;;;;;5005264;28;20535;-84
2021/11/23 11:08:47;;;;;;;23.90;15.30;;;6.40;99.90;;;;;;4994810;28;20538;-84
2021/11/23 11:11:37;;;;;;;15.60;11.80;;;6.60;99.90;;;;;;4999044;28;20994;-84
2021/11/23 11:17:18;;;;;;;21.07;14.10;;;6.50;99.90;;;;;;5007702;28;20561;-85
2021/11/23 11:19:52;;;;;;;19.50;14.20;;;6.40;99.90;;;;;;4998735;28;20515;-84
2021/11/23 11:22:31;;;;;;;15.63;11.23;;;6.30;99.90;;;;;;4999640;28;20460;-82
2021/11/23 11:25:14;;;;;;;18.43;12.97;;;6.40;99.90;;;;;;4998635;28;20462;-82
2021/11/23 11:27:48;;;;;;;21.50;13.20;;;6.60;99.90;;;;;;4998635;28;20439;-83
2021/11/23 11:30:19;;;;;;;20.00;14.23;;;6.80;99.90;;;;;;4996923;28;20569;-85
2021/11/23 11:32:52;;;;;;;18.10;12.10;;;6.90;99.90;;;;;;5004377;28;20518;-85
2021/11/23 11:35:49;;;;;;;26.17;14.97;;;6.90;99.90;;;;;;5008742;28;21103;-83
2021/11/23 11:38:46;;;;;;;16.07;12.77;;;7.00;99.90;;;;;;4996889;28;20491;-83
2021/11/23 11:41:42;;;;;;;18.07;13.07;;;6.90;99.90;;;;;;5005258;28;20490;-83
2021/11/23 11:44:21;;;;;;;15.10;12.77;;;7.10;99.90;;;;;;4996373;28;20472;-85
2021/11/23 11:47:11;;;;;;;17.23;12.80;;;7.10;99.90;;;;;;4995034;28;20821;-85
2021/11/23 11:50:03;;;;;;;24.13;13.70;;;7.20;99.90;;;;;;4994919;28;20483;-85
2021/11/23 11:53:05;;;;;;;23.10;14.53;;;7.20;99.90;;;;;;4993643;28;20502;-84
2021/11/23 11:55:37;;;;;;;20.13;14.40;;;7.20;99.90;;;;;;5004084;28;20483;-84
2021/11/23 11:58:06;;;;;;;19.43;13.73;;;7.20;99.90;;;;;;4995287;28;20444;-84
2021/11/23 12:00:41;;;;;;;17.30;13.10;;;7.40;99.90;;;;;;4992060;28;20483;-84
2021/11/23 12:03:26;;;;;;;21.33;14.50;;;7.60;99.90;;;;;;4999950;28;20446;-83
2021/11/23 12:06:13;;;;;;;21.33;13.30;;;7.60;99.90;;;;;;5012181;28;20421;-84
2021/11/23 12:12:08;;;;;;;16.83;12.43;;;7.40;99.90;;;;;;5077546;23;20484;-84
2021/11/23 12:14:51;;;;;;;22.07;13.80;;;7.50;99.90;;;;;;5031485;28;20445;-86
2021/11/23 12:17:24;;;;;;;20.77;13.30;;;7.60;99.90;;;;;;5030254;28;20456;-84
2021/11/23 12:20:15;;;;;;;17.97;14.33;;;7.70;99.90;;;;;;5032286;28;20482;-85
2021/11/23 12:22:45;;;;;;;16.50;12.00;;;7.90;99.90;;;;;;5015859;28;20464;-83
2021/11/23 12:25:13;;;;;;;19.20;13.10;;;7.90;99.90;;;;;;5011706;28;20452;-83
2021/11/23 12:27:45;;;;;;;16.53;12.90;;;7.90;99.90;;;;;;5020319;28;20926;-83
2021/11/23 12:30:14;;;;;;;20.27;13.20;;;7.90;99.90;;;;;;5013738;28;20495;-84
2021/11/23 12:32:42;;;;;;;19.57;13.93;;;7.90;99.90;;;;;;5015316;28;20484;-86
2021/11/23 12:35:11;;;;;;;22.10;13.97;;;8.10;99.90;;;;;;5014131;28;20443;-83
2021/11/23 12:37:40;;;;;;;23.97;13.93;;;8.00;99.90;;;;;;5013579;28;20450;-86
2021/11/23 12:40:17;;;;;;;22.53;13.87;;;8.00;99.90;;;;;;5015958;28;20939;-86
2021/11/23 12:42:53;;;;;;;20.10;14.13;;;8.00;99.90;;;;;;5014970;28;20456;-85
2021/11/23 12:45:38;;;;;;;20.40;14.17;;;7.80;99.90;;;;;;5015416;28;20460;-86
2021/11/23 12:48:12;;;;;;;23.07;14.13;;;7.60;99.90;;;;;;5024768;28;20544;-84
2021/11/23 12:50:39;;;;;;;16.20;13.30;;;7.70;99.90;;;;;;5018963;28;20499;-84
2021/11/23 12:53:15;;;;;;;19.07;14.30;;;8.00;99.90;;;;;;5014775;28;20479;-83
2021/11/23 12:55:51;;;;;;;20.50;13.70;;;8.00;99.90;;;;;;5016148;28;20977;-82
2021/11/23 12:58:18;;;;;;;28.27;16.03;;;8.00;99.90;;;;;;5011911;28;20445;-85
2021/11/23 13:00:45;;;;;;;17.90;14.47;;;8.00;99.90;;;;;;5028514;28;20497;-83
2021/11/23 13:03:12;;;;;;;19.27;14.70;;;8.10;99.90;;;;;;5020734;28;20445;-85
2021/11/23 13:05:40;;;;;;;20.50;13.40;;;8.20;99.90;;;;;;5012116;28;20460;-84
2021/11/23 13:08:14;;;;;;;22.00;14.60;;;8.20;99.90;;;;;;5010749;28;20457;-85
2021/11/23 13:10:45;;;;;;;20.60;14.53;;;8.10;99.90;;;;;;5019159;28;20577;-84
2021/11/23 13:13:23;;;;;;;21.73;13.90;;;8.10;99.90;;;;;;5011414;28;20492;-83
2021/11/23 13:15:52;;;;;;;20.43;14.83;;;7.90;99.90;;;;;;5014130;28;20461;-84
2021/11/23 13:18:27;;;;;;;20.00;14.37;;;8.00;99.90;;;;;;5013552;28;20471;-82
2021/11/23 13:20:57;;;;;;;23.20;16.43;;;8.00;99.90;;;;;;5014686;28;20476;-85
2021/11/23 13:23:50;;;;;;;18.33;13.00;;;8.00;99.90;;;;;;5014483;28;20468;-83
2021/11/23 13:26:28;;;;;;;22.47;15.30;;;8.20;99.90;;;;;;5009748;28;20456;-83
2021/11/23 13:29:05;;;;;;;23.30;15.70;;;8.10;99.90;;;;;;5015691;28;20922;-83
2021/11/23 13:31:40;;;;;;;21.30;14.30;;;8.00;99.90;;;;;;5016258;28;20498;-85
2021/11/23 13:34:11;;;;;;;23.53;14.33;;;7.90;99.90;;;;;;5014698;28;20462;-83
2021/11/23 13:36:47;;;;;;;22.50;15.70;;;8.00;99.90;;;;;;5016083;28;20520;-84
2021/11/23 13:39:19;;;;;;;21.93;14.93;;;8.00;99.90;;;;;;5015445;28;20453;-83
2021/11/23 13:41:58;;;;;;;25.90;15.80;;;8.00;99.90;;;;;;5015389;28;20451;-84
2021/11/23 15:01:06;;;;;;;27.27;15.33;;;8.10;99.90;;;;;;4692221;22;20482;-82
2021/11/23 15:03:35;;;;;;;22.30;15.20;;;8.10;99.90;;;;;;5039903;28;21593;-81
2021/11/23 15:06:17;;;;;;;27.70;15.70;;;8.10;99.90;;;;;;5037523;28;20454;-86
2021/11/23 15:08:45;;;;;;;23.80;14.87;;;8.00;99.90;;;;;;5028045;28;20453;-84
2021/11/23 15:11:12;;;;;;;23.30;15.63;;;8.00;99.90;;;;;;5020709;28;21182;-84